Time,TemperatureF,DewpointF,PressureIn,WindDirection,WindDirectionDegrees,WindSpeedMPH,WindSpeedGustMPH,Humidity,HourlyPrecipIn,Conditions,Clouds,dailyrainin,SoftwareType,DateUTC
2013-08-06 00:02:00,61.2,50.2,30.04,SW,225,3.0,4.0,67,0.00,,,0.00,meteohub,2013-08-06 07:02:00,
2013-08-06 00:22:00,61.3,50.7,30.04,South,190,4.0,5.0,68,0.00,,,0.00,meteohub,2013-08-06 07:22:00,
2013-08-06 00:42:00,61.7,51.1,30.04,SSW,204,3.0,4.0,68,0.00,,,0.00,meteohub,2013-08-06 07:42:00,
2013-08-06 01:02:00,61.9,50.0,30.04,South,172,0.0,5.0,65,0.00,,,0.00,meteohub,2013-08-06 08:02:00,
2013-08-06 01:22:00,61.7,48.2,30.04,West,264,0.0,5.0,61,0.00,,,0.00,meteohub,2013-08-06 08:22:00,
2013-08-06 01:42:00,61.3,45.5,30.04,WSW,254,0.0,6.0,56,0.00,,,0.00,meteohub,2013-08-06 08:42:00,
2013-08-06 02:02:00,61.5,44.2,30.04,SSW,207,4.0,5.0,53,0.00,,,0.00,meteohub,2013-08-06 09:02:00,
2013-08-06 02:22:00,61.5,43.7,30.04,SSW,209,0.0,5.0,52,0.00,,,0.00,meteohub,2013-08-06 09:22:00,
2013-08-06 02:42:00,61.7,43.9,30.04,West,263,0.0,0.0,52,0.00,,,0.00,meteohub,2013-08-06 09:42:00,
2013-08-06 03:02:00,61.5,43.7,30.04,SW,232,0.0,0.0,52,0.00,,,0.00,meteohub,2013-08-06 10:02:00,
2013-08-06 03:22:00,61.3,43.5,30.04,WSW,258,0.0,0.0,52,0.00,,,0.00,meteohub,2013-08-06 10:22:00,
2013-08-06 03:42:00,61.5,43.7,30.04,South,173,0.0,0.0,52,0.00,,,0.00,meteohub,2013-08-06 10:42:00,
2013-08-06 04:02:00,61.5,43.7,30.04,SSE,168,0.0,0.0,52,0.00,,,0.00,meteohub,2013-08-06 11:02:00,
2013-08-06 04:22:00,61.3,43.5,30.04,WSW,247,0.0,0.0,52,0.00,,,0.00,meteohub,2013-08-06 11:22:00,
2013-08-06 04:42:00,61.5,42.6,30.04,West,270,0.0,0.0,50,0.00,,,0.00,meteohub,2013-08-06 11:42:00,
2013-08-06 05:02:00,61.3,42.6,30.04,West,268,0.0,0.0,50,0.00,,,0.00,meteohub,2013-08-06 12:02:00,
2013-08-06 05:22:00,61.5,42.3,30.04,SSW,199,0.0,0.0,49,0.00,,,0.00,meteohub,2013-08-06 12:22:00,
2013-08-06 05:42:00,61.5,42.3,30.04,SSW,200,0.0,0.0,49,0.00,,,0.00,meteohub,2013-08-06 12:42:00,
2013-08-06 06:02:00,61.9,42.4,30.04,East,96,0.0,0.0,49,0.00,,,0.00,meteohub,2013-08-06 13:02:00,
2013-08-06 06:22:00,62.1,42.1,30.07,ENE,69,0.0,0.0,48,0.00,,,0.00,meteohub,2013-08-06 13:22:00,
2013-08-06 06:42:00,61.9,41.9,30.07,NW,315,0.0,0.0,48,0.00,,,0.00,meteohub,2013-08-06 13:42:00,
2013-08-06 07:02:00,61.9,41.4,30.07,WNW,286,0.0,0.0,47,0.00,,,0.00,meteohub,2013-08-06 14:02:00,
2013-08-06 07:22:00,62.2,41.7,30.07,WNW,285,0.0,0.0,47,0.00,,,0.00,meteohub,2013-08-06 14:22:00,
2013-08-06 07:42:00,63.1,42.1,30.07,South,173,3.0,3.0,46,0.00,,,0.00,meteohub,2013-08-06 14:42:00,
2013-08-06 08:02:00,63.9,41.5,30.07,East,89,0.0,4.0,44,0.00,,,0.00,meteohub,2013-08-06 15:02:00,
2013-08-06 08:22:00,65.1,42.1,30.07,SW,219,0.0,3.0,43,0.00,,,0.00,meteohub,2013-08-06 15:22:00,
2013-08-06 08:42:00,66.6,40.1,30.07,SSW,198,0.0,5.0,38,0.00,,,0.00,meteohub,2013-08-06 15:42:00,
2013-08-06 09:02:00,66.2,38.5,30.07,SW,226,4.0,5.0,36,0.00,,,0.00,meteohub,2013-08-06 16:02:00,
2013-08-06 09:22:00,66.7,39.0,30.10,SW,219,4.0,8.0,36,0.00,,,0.00,meteohub,2013-08-06 16:22:00,
2013-08-06 09:42:00,66.7,39.0,30.10,SSW,195,8.0,8.0,36,0.00,,,0.00,meteohub,2013-08-06 16:42:00,
2013-08-06 10:02:00,66.7,39.0,30.10,SW,223,8.0,10.0,36,0.00,,,0.00,meteohub,2013-08-06 17:02:00,
2013-08-06 10:22:00,67.5,39.6,30.10,SW,230,6.0,9.0,36,0.00,,,0.00,meteohub,2013-08-06 17:22:00,
2013-08-06 10:42:00,67.6,39.0,30.10,WSW,246,8.0,11.0,35,0.00,,,0.00,meteohub,2013-08-06 17:42:00,
2013-08-06 11:02:00,68.2,38.7,30.10,SSW,195,8.0,9.0,34,0.00,,,0.00,meteohub,2013-08-06 18:02:00,
2013-08-06 11:22:00,68.0,39.4,30.10,WSW,239,8.0,11.0,35,0.00,,,0.00,meteohub,2013-08-06 18:22:00,
2013-08-06 11:42:00,69.1,39.6,30.10,SW,221,5.0,9.0,34,0.00,,,0.00,meteohub,2013-08-06 18:42:00,
2013-08-06 12:02:00,69.4,39.9,30.10,SW,230,8.0,9.0,34,0.00,,,0.00,meteohub,2013-08-06 19:02:00,
2013-08-06 12:22:00,70.0,40.3,30.10,West,271,7.0,9.0,34,0.00,,,0.00,meteohub,2013-08-06 19:22:00,
2013-08-06 12:42:00,69.4,39.9,30.10,WNW,298,8.0,9.0,34,0.00,,,0.00,meteohub,2013-08-06 19:42:00,
2013-08-06 13:02:00,70.2,39.7,30.10,South,189,6.0,10.0,33,0.00,,,0.00,meteohub,2013-08-06 20:02:00,
2013-08-06 13:22:00,71.2,40.6,30.10,SW,226,8.0,10.0,33,0.00,,,0.00,meteohub,2013-08-06 20:22:00,
2013-08-06 13:42:00,71.4,40.8,30.10,SSW,213,5.0,10.0,33,0.00,,,0.00,meteohub,2013-08-06 20:42:00,
2013-08-06 14:02:00,70.7,40.1,30.10,SW,236,6.0,11.0,33,0.00,,,0.00,meteohub,2013-08-06 21:02:00,
2013-08-06 14:22:00,71.2,40.6,30.10,WSW,255,8.0,11.0,33,0.00,,,0.00,meteohub,2013-08-06 21:22:00,
2013-08-06 14:42:00,70.9,40.3,30.10,SW,231,5.0,12.0,33,0.00,,,0.00,meteohub,2013-08-06 21:42:00,
2013-08-06 15:02:00,72.0,41.4,30.10,WSW,254,8.0,12.0,33,0.00,,,0.00,meteohub,2013-08-06 22:02:00,
2013-08-06 15:22:00,71.1,40.5,30.10,SW,232,11.0,12.0,33,0.00,,,0.00,meteohub,2013-08-06 22:22:00,
2013-08-06 15:42:00,70.3,40.6,30.10,WNW,284,8.0,13.0,34,0.00,,,0.00,meteohub,2013-08-06 22:42:00,
2013-08-06 16:02:00,70.5,40.1,30.10,SW,232,6.0,13.0,33,0.00,,,0.00,meteohub,2013-08-06 23:02:00,
2013-08-06 16:22:00,69.8,40.1,30.07,WSW,238,8.0,15.0,34,0.00,,,0.00,meteohub,2013-08-06 23:22:00,
2013-08-06 16:42:00,71.4,41.5,30.07,WSW,257,11.0,11.0,34,0.00,,,0.00,meteohub,2013-08-06 23:42:00,
2013-08-06 17:02:00,71.2,41.4,30.07,WSW,258,12.0,12.0,34,0.00,,,0.00,meteohub,2013-08-07 00:02:00,
2013-08-06 17:22:00,70.7,41.0,30.07,WSW,248,9.0,13.0,34,0.00,,,0.00,meteohub,2013-08-07 00:22:00,
2013-08-06 17:42:00,70.2,41.2,30.07,WNW,295,8.0,15.0,35,0.00,,,0.00,meteohub,2013-08-07 00:42:00,
2013-08-06 18:02:00,70.3,40.6,30.07,West,267,11.0,13.0,34,0.00,,,0.00,meteohub,2013-08-07 01:02:00,
2013-08-06 18:22:00,70.5,40.8,30.07,SW,230,9.0,13.0,34,0.00,,,0.00,meteohub,2013-08-07 01:22:00,
2013-08-06 18:42:00,70.0,41.0,30.07,WSW,241,8.0,11.0,35,0.00,,,0.00,meteohub,2013-08-07 01:42:00,
2013-08-06 19:02:00,67.3,41.5,30.07,SW,222,6.0,13.0,39,0.00,,,0.00,meteohub,2013-08-07 02:02:00,
2013-08-06 19:22:00,66.2,43.0,30.07,West,268,8.0,10.0,43,0.00,,,0.00,meteohub,2013-08-07 02:22:00,
2013-08-06 19:42:00,65.5,43.0,30.07,SW,235,6.0,8.0,44,0.00,,,0.00,meteohub,2013-08-07 02:42:00,
2013-08-06 20:02:00,64.6,42.8,30.07,WSW,253,3.0,9.0,45,0.00,,,0.00,meteohub,2013-08-07 03:02:00,
2013-08-06 20:22:00,64.0,43.3,30.07,SW,232,6.0,8.0,47,0.00,,,0.00,meteohub,2013-08-07 03:22:00,
2013-08-06 20:42:00,63.5,43.5,30.07,West,264,3.0,8.0,48,0.00,,,0.00,meteohub,2013-08-07 03:42:00,
2013-08-06 21:02:00,63.3,43.9,30.10,West,264,3.0,8.0,49,0.00,,,0.00,meteohub,2013-08-07 04:02:00,
2013-08-06 21:22:00,63.0,43.5,30.10,WNW,301,3.0,5.0,49,0.00,,,0.00,meteohub,2013-08-07 04:22:00,
2013-08-06 21:42:00,63.0,43.5,30.10,NNW,342,0.0,5.0,49,0.00,,,0.00,meteohub,2013-08-07 04:42:00,
2013-08-06 22:02:00,62.1,42.6,30.10,North,0,0.0,4.0,49,0.00,,,0.00,meteohub,2013-08-07 05:02:00,
2013-08-06 22:22:00,61.7,41.9,30.10,North,353,0.0,0.0,48,0.00,,,0.00,meteohub,2013-08-07 05:22:00,
2013-08-06 22:42:00,61.7,41.9,30.10,WSW,251,4.0,0.0,48,0.00,,,0.00,meteohub,2013-08-07 05:42:00,
2013-08-06 23:02:00,61.9,43.0,30.10,WSW,258,6.0,8.0,50,0.00,,,0.00,meteohub,2013-08-07 06:02:00,
2013-08-06 23:22:00,61.7,43.9,30.10,WSW,253,4.0,6.0,52,0.00,,,0.00,meteohub,2013-08-07 06:22:00,
2013-08-06 23:42:00,61.3,44.1,30.10,WNW,288,3.0,8.0,53,0.00,,,0.00,meteohub,2013-08-07 06:42:00,